sensor_id;sensor_type;location;lat;lon;timestamp;P1;P2;P0
74880;PMS5003;63427;49.654;6.596;2023-07-28T00:01:14;3;2;
74880;PMS5003;63427;49.654;6.596;2023-07-28T00:03:39;3;2;
74880;PMS5003;63427;49.654;6.596;2023-07-28T00:06:05;2;2;
74880;PMS5003;63427;49.654;6.596;2023-07-28T00:08:30;2;2;
74880;PMS5003;63427;49.654;6.596;2023-07-28T00:11:00;3;3;
74880;PMS5003;63427;49.654;6.596;2023-07-28T00:13:20;2;2;
74880;PMS5003;63427;49.654;6.596;2023-07-28T00:15:46;2;2;
74880;PMS5003;63427;49.654;6.596;2023-07-28T00:18:10;2;2;
74880;PMS5003;63427;49.654;6.596;2023-07-28T00:20:36;3;2;
74880;PMS5003;63427;49.654;6.596;2023-07-28T00:23:01;0;0;
74880;PMS5003;63427;49.654;6.596;2023-07-28T00:25:26;1;1;
74880;PMS5003;63427;49.654;6.596;2023-07-28T00:27:51;3;3;
74880;PMS5003;63427;49.654;6.596;2023-07-28T00:30:21;3;3;
74880;PMS5003;63427;49.654;6.596;2023-07-28T00:32:42;1;1;
74880;PMS5003;63427;49.654;6.596;2023-07-28T00:35:07;3;2;
74880;PMS5003;63427;49.654;6.596;2023-07-28T00:37:32;2;2;
74880;PMS5003;63427;49.654;6.596;2023-07-28T00:39:58;2;2;
74880;PMS5003;63427;49.654;6.596;2023-07-28T00:42:22;0;0;
74880;PMS5003;63427;49.654;6.596;2023-07-28T00:44:48;1;1;
74880;PMS5003;63427;49.654;6.596;2023-07-28T00:47:13;2;2;
74880;PMS5003;63427;49.654;6.596;2023-07-28T00:49:38;1;1;
74880;PMS5003;63427;49.654;6.596;2023-07-28T00:52:03;1;1;
74880;PMS5003;63427;49.654;6.596;2023-07-28T00:54:28;1;1;
74880;PMS5003;63427;49.654;6.596;2023-07-28T00:56:54;2;2;
74880;PMS5003;63427;49.654;6.596;2023-07-28T00:59:19;2;1;
74880;PMS5003;63427;49.654;6.596;2023-07-28T01:01:44;2;2;
74880;PMS5003;63427;49.654;6.596;2023-07-28T01:04:09;2;2;
74880;PMS5003;63427;49.654;6.596;2023-07-28T01:06:36;1;1;
74880;PMS5003;63427;49.654;6.596;2023-07-28T01:09:01;2;2;
74880;PMS5003;63427;49.654;6.596;2023-07-28T01:11:25;2;2;
74880;PMS5003;63427;49.654;6.596;2023-07-28T01:13:50;1;1;
74880;PMS5003;63427;49.654;6.596;2023-07-28T01:16:15;2;2;
74880;PMS5003;63427;49.654;6.596;2023-07-28T01:18:40;1;1;
74880;PMS5003;63427;49.654;6.596;2023-07-28T01:21:06;2;2;
74880;PMS5003;63427;49.654;6.596;2023-07-28T01:23:34;0;0;
74880;PMS5003;63427;49.654;6.596;2023-07-28T01:25:58;2;2;
74880;PMS5003;63427;49.654;6.596;2023-07-28T01:28:21;1;1;
74880;PMS5003;63427;49.654;6.596;2023-07-28T01:30:46;1;1;
74880;PMS5003;63427;49.654;6.596;2023-07-28T01:33:12;2;2;
74880;PMS5003;63427;49.654;6.596;2023-07-28T01:35:36;2;2;
74880;PMS5003;63427;49.654;6.596;2023-07-28T01:38:02;2;2;
74880;PMS5003;63427;49.654;6.596;2023-07-28T01:40:27;1;1;
74880;PMS5003;63427;49.654;6.596;2023-07-28T01:42:52;1;1;
74880;PMS5003;63427;49.654;6.596;2023-07-28T01:45:17;1;1;
74880;PMS5003;63427;49.654;6.596;2023-07-28T01:47:42;0;0;
74880;PMS5003;63427;49.654;6.596;2023-07-28T01:50:08;2;2;
74880;PMS5003;63427;49.654;6.596;2023-07-28T01:52:33;1;1;
74880;PMS5003;63427;49.654;6.596;2023-07-28T01:54:58;1;1;
74880;PMS5003;63427;49.654;6.596;2023-07-28T01:57:23;1;1;
74880;PMS5003;63427;49.654;6.596;2023-07-28T01:59:48;1;1;
74880;PMS5003;63427;49.654;6.596;2023-07-28T02:02:14;0;0;
74880;PMS5003;63427;49.654;6.596;2023-07-28T02:04:39;1;1;
74880;PMS5003;63427;49.654;6.596;2023-07-28T02:07:04;1;1;
74880;PMS5003;63427;49.654;6.596;2023-07-28T02:09:29;1;1;
74880;PMS5003;63427;49.654;6.596;2023-07-28T02:11:54;1;1;
74880;PMS5003;63427;49.654;6.596;2023-07-28T02:14:20;1;1;
74880;PMS5003;63427;49.654;6.596;2023-07-28T02:16:45;2;2;
74880;PMS5003;63427;49.654;6.596;2023-07-28T02:19:10;2;2;
74880;PMS5003;63427;49.654;6.596;2023-07-28T02:21:35;1;1;
74880;PMS5003;63427;49.654;6.596;2023-07-28T02:24:00;1;1;
74880;PMS5003;63427;49.654;6.596;2023-07-28T02:26:26;0;0;
74880;PMS5003;63427;49.654;6.596;2023-07-28T02:28:51;1;1;
74880;PMS5003;63427;49.654;6.596;2023-07-28T02:31:16;0;0;
74880;PMS5003;63427;49.654;6.596;2023-07-28T02:33:41;1;1;
74880;PMS5003;63427;49.654;6.596;2023-07-28T02:36:06;1;1;
74880;PMS5003;63427;49.654;6.596;2023-07-28T02:38:31;1;1;
74880;PMS5003;63427;49.654;6.596;2023-07-28T02:40:57;2;2;
74880;PMS5003;63427;49.654;6.596;2023-07-28T02:43:22;0;0;
74880;PMS5003;63427;49.654;6.596;2023-07-28T02:45:48;1;1;
74880;PMS5003;63427;49.654;6.596;2023-07-28T02:48:12;1;1;
74880;PMS5003;63427;49.654;6.596;2023-07-28T02:50:37;0;0;
74880;PMS5003;63427;49.654;6.596;2023-07-28T02:53:03;1;1;
74880;PMS5003;63427;49.654;6.596;2023-07-28T02:55:28;0;0;
74880;PMS5003;63427;49.654;6.596;2023-07-28T02:57:53;1;1;
74880;PMS5003;63427;49.654;6.596;2023-07-28T03:00:18;0;0;
74880;PMS5003;63427;49.654;6.596;2023-07-28T03:02:43;0;0;
74880;PMS5003;63427;49.654;6.596;2023-07-28T03:05:08;2;2;
74880;PMS5003;63427;49.654;6.596;2023-07-28T03:07:34;1;1;
74880;PMS5003;63427;49.654;6.596;2023-07-28T03:09:59;1;1;
74880;PMS5003;63427;49.654;6.596;2023-07-28T03:12:24;0;0;
74880;PMS5003;63427;49.654;6.596;2023-07-28T03:14:49;0;0;
74880;PMS5003;63427;49.654;6.596;2023-07-28T03:17:14;2;1;
74880;PMS5003;63427;49.654;6.596;2023-07-28T03:19:40;2;2;
74880;PMS5003;63427;49.654;6.596;2023-07-28T03:22:05;2;2;
74880;PMS5003;63427;49.654;6.596;2023-07-28T03:24:30;1;1;
74880;PMS5003;63427;49.654;6.596;2023-07-28T03:26:55;1;1;
74880;PMS5003;63427;49.654;6.596;2023-07-28T03:29:21;2;2;
74880;PMS5003;63427;49.654;6.596;2023-07-28T03:31:45;1;1;
74880;PMS5003;63427;49.654;6.596;2023-07-28T03:34:11;1;1;
74880;PMS5003;63427;49.654;6.596;2023-07-28T03:36:36;2;2;
74880;PMS5003;63427;49.654;6.596;2023-07-28T03:39:01;2;2;
74880;PMS5003;63427;49.654;6.596;2023-07-28T03:41:26;2;1;
74880;PMS5003;63427;49.654;6.596;2023-07-28T03:43:51;1;1;
74880;PMS5003;63427;49.654;6.596;2023-07-28T03:46:17;1;1;
74880;PMS5003;63427;49.654;6.596;2023-07-28T03:48:42;2;2;
74880;PMS5003;63427;49.654;6.596;2023-07-28T03:51:07;0;0;
74880;PMS5003;63427;49.654;6.596;2023-07-28T03:53:32;1;1;
74880;PMS5003;63427;49.654;6.596;2023-07-28T03:55:57;1;1;
74880;PMS5003;63427;49.654;6.596;2023-07-28T03:58:22;1;1;
74880;PMS5003;63427;49.654;6.596;2023-07-28T04:03:13;2;2;
74880;PMS5003;63427;49.654;6.596;2023-07-28T04:05:38;1;1;
74880;PMS5003;63427;49.654;6.596;2023-07-28T04:08:03;1;1;
74880;PMS5003;63427;49.654;6.596;2023-07-28T04:10:28;1;1;
74880;PMS5003;63427;49.654;6.596;2023-07-28T04:12:54;1;1;
74880;PMS5003;63427;49.654;6.596;2023-07-28T04:15:19;1;1;
74880;PMS5003;63427;49.654;6.596;2023-07-28T04:17:44;0;0;
74880;PMS5003;63427;49.654;6.596;2023-07-28T04:20:09;1;1;
74880;PMS5003;63427;49.654;6.596;2023-07-28T04:22:34;1;1;
74880;PMS5003;63427;49.654;6.596;2023-07-28T04:24:59;0;0;
74880;PMS5003;63427;49.654;6.596;2023-07-28T04:27:25;1;1;
74880;PMS5003;63427;49.654;6.596;2023-07-28T04:29:50;2;2;
74880;PMS5003;63427;49.654;6.596;2023-07-28T04:32:15;2;2;
74880;PMS5003;63427;49.654;6.596;2023-07-28T04:34:40;1;1;
74880;PMS5003;63427;49.654;6.596;2023-07-28T04:37:05;1;1;
74880;PMS5003;63427;49.654;6.596;2023-07-28T04:39:31;1;1;
74880;PMS5003;63427;49.654;6.596;2023-07-28T04:41:56;0;0;
74880;PMS5003;63427;49.654;6.596;2023-07-28T04:44:21;1;1;
74880;PMS5003;63427;49.654;6.596;2023-07-28T04:46:46;1;1;
74880;PMS5003;63427;49.654;6.596;2023-07-28T04:49:11;2;2;
74880;PMS5003;63427;49.654;6.596;2023-07-28T04:51:36;2;2;
74880;PMS5003;63427;49.654;6.596;2023-07-28T04:54:01;2;2;
74880;PMS5003;63427;49.654;6.596;2023-07-28T04:56:27;3;3;
74880;PMS5003;63427;49.654;6.596;2023-07-28T04:58:52;2;2;
74880;PMS5003;63427;49.654;6.596;2023-07-28T05:01:17;2;2;
74880;PMS5003;63427;49.654;6.596;2023-07-28T05:03:42;2;2;
74880;PMS5003;63427;49.654;6.596;2023-07-28T05:06:07;2;2;
74880;PMS5003;63427;49.654;6.596;2023-07-28T05:08:32;3;3;
74880;PMS5003;63427;49.654;6.596;2023-07-28T05:10:58;3;3;
74880;PMS5003;63427;49.654;6.596;2023-07-28T05:13:23;0;0;
74880;PMS5003;63427;49.654;6.596;2023-07-28T05:15:48;1;1;
74880;PMS5003;63427;49.654;6.596;2023-07-28T05:18:13;1;1;
74880;PMS5003;63427;49.654;6.596;2023-07-28T05:20:39;2;2;
74880;PMS5003;63427;49.654;6.596;2023-07-28T05:23:04;0;0;
74880;PMS5003;63427;49.654;6.596;2023-07-28T05:25:29;1;1;
74880;PMS5003;63427;49.654;6.596;2023-07-28T05:27:54;1;1;
74880;PMS5003;63427;49.654;6.596;2023-07-28T05:30:19;1;1;
74880;PMS5003;63427;49.654;6.596;2023-07-28T05:32:44;2;2;
74880;PMS5003;63427;49.654;6.596;2023-07-28T05:35:09;1;1;
74880;PMS5003;63427;49.654;6.596;2023-07-28T05:37:34;1;1;
74880;PMS5003;63427;49.654;6.596;2023-07-28T05:40:00;1;1;
74880;PMS5003;63427;49.654;6.596;2023-07-28T05:42:25;1;1;
74880;PMS5003;63427;49.654;6.596;2023-07-28T05:44:50;1;1;
74880;PMS5003;63427;49.654;6.596;2023-07-28T05:47:15;0;0;
74880;PMS5003;63427;49.654;6.596;2023-07-28T05:49:40;2;2;
74880;PMS5003;63427;49.654;6.596;2023-07-28T05:52:06;2;2;
74880;PMS5003;63427;49.654;6.596;2023-07-28T05:54:31;2;2;
74880;PMS5003;63427;49.654;6.596;2023-07-28T05:56:56;1;1;
74880;PMS5003;63427;49.654;6.596;2023-07-28T05:59:21;2;2;
74880;PMS5003;63427;49.654;6.596;2023-07-28T06:01:46;1;1;
74880;PMS5003;63427;49.654;6.596;2023-07-28T06:04:11;1;1;
74880;PMS5003;63427;49.654;6.596;2023-07-28T06:06:36;2;2;
74880;PMS5003;63427;49.654;6.596;2023-07-28T06:09:02;1;1;
74880;PMS5003;63427;49.654;6.596;2023-07-28T06:11:27;2;2;
74880;PMS5003;63427;49.654;6.596;2023-07-28T06:13:52;2;2;
74880;PMS5003;63427;49.654;6.596;2023-07-28T06:16:17;2;2;
74880;PMS5003;63427;49.654;6.596;2023-07-28T06:18:42;1;1;
74880;PMS5003;63427;49.654;6.596;2023-07-28T06:21:07;2;2;
74880;PMS5003;63427;49.654;6.596;2023-07-28T06:23:32;2;2;
74880;PMS5003;63427;49.654;6.596;2023-07-28T06:25:58;2;2;
74880;PMS5003;63427;49.654;6.596;2023-07-28T06:28:23;3;3;
74880;PMS5003;63427;49.654;6.596;2023-07-28T06:30:53;2;2;
74880;PMS5003;63427;49.654;6.596;2023-07-28T06:33:13;4;3;
74880;PMS5003;63427;49.654;6.596;2023-07-28T06:35:38;1;1;
74880;PMS5003;63427;49.654;6.596;2023-07-28T07:26:26;6;6;
74880;PMS5003;63427;49.654;6.596;2023-07-28T07:28:51;3;3;
74880;PMS5003;63427;49.654;6.596;2023-07-28T07:31:21;6;6;
74880;PMS5003;63427;49.654;6.596;2023-07-28T07:33:41;7;7;
74880;PMS5003;63427;49.654;6.596;2023-07-28T07:36:11;4;4;
74880;PMS5003;63427;49.654;6.596;2023-07-28T07:38:31;5;5;
74880;PMS5003;63427;49.654;6.596;2023-07-28T07:40:56;5;5;
74880;PMS5003;63427;49.654;6.596;2023-07-28T07:43:21;6;5;
74880;PMS5003;63427;49.654;6.596;2023-07-28T07:45:47;6;5;
74880;PMS5003;63427;49.654;6.596;2023-07-28T07:48:13;6;6;
74880;PMS5003;63427;49.654;6.596;2023-07-28T07:50:37;6;5;
74880;PMS5003;63427;49.654;6.596;2023-07-28T07:53:02;6;6;
74880;PMS5003;63427;49.654;6.596;2023-07-28T07:55:28;4;4;
74880;PMS5003;63427;49.654;6.596;2023-07-28T07:57:53;5;5;
74880;PMS5003;63427;49.654;6.596;2023-07-28T08:00:18;6;6;
74880;PMS5003;63427;49.654;6.596;2023-07-28T08:02:43;4;4;
74880;PMS5003;63427;49.654;6.596;2023-07-28T08:05:08;6;5;
74880;PMS5003;63427;49.654;6.596;2023-07-28T08:07:33;7;7;
74880;PMS5003;63427;49.654;6.596;2023-07-28T08:09:59;7;6;
74880;PMS5003;63427;49.654;6.596;2023-07-28T08:12:24;6;5;
74880;PMS5003;63427;49.654;6.596;2023-07-28T08:14:49;7;7;
74880;PMS5003;63427;49.654;6.596;2023-07-28T08:17:14;6;6;
74880;PMS5003;63427;49.654;6.596;2023-07-28T08:19:39;5;5;
74880;PMS5003;63427;49.654;6.596;2023-07-28T08:22:04;5;5;
74880;PMS5003;63427;49.654;6.596;2023-07-28T08:24:34;5;5;
74880;PMS5003;63427;49.654;6.596;2023-07-28T08:26:54;5;5;
74880;PMS5003;63427;49.654;6.596;2023-07-28T08:29:19;4;4;
74880;PMS5003;63427;49.654;6.596;2023-07-28T08:31:44;6;6;
74880;PMS5003;63427;49.654;6.596;2023-07-28T08:34:09;4;4;
74880;PMS5003;63427;49.654;6.596;2023-07-28T08:36:35;5;5;
74880;PMS5003;63427;49.654;6.596;2023-07-28T08:39:00;4;4;
74880;PMS5003;63427;49.654;6.596;2023-07-28T08:41:25;6;6;
74880;PMS5003;63427;49.654;6.596;2023-07-28T08:43:50;5;5;
74880;PMS5003;63427;49.654;6.596;2023-07-28T08:46:15;5;5;
74880;PMS5003;63427;49.654;6.596;2023-07-28T08:48:41;3;3;
74880;PMS5003;63427;49.654;6.596;2023-07-28T08:51:05;4;4;
74880;PMS5003;63427;49.654;6.596;2023-07-28T08:53:30;5;5;
74880;PMS5003;63427;49.654;6.596;2023-07-28T08:55:55;4;4;
74880;PMS5003;63427;49.654;6.596;2023-07-28T08:58:21;3;3;
74880;PMS5003;63427;49.654;6.596;2023-07-28T09:00:45;4;4;
74880;PMS5003;63427;49.654;6.596;2023-07-28T09:03:10;4;4;
74880;PMS5003;63427;49.654;6.596;2023-07-28T09:05:35;4;4;
74880;PMS5003;63427;49.654;6.596;2023-07-28T09:08:00;3;3;
74880;PMS5003;63427;49.654;6.596;2023-07-28T09:10:25;4;4;
74880;PMS5003;63427;49.654;6.596;2023-07-28T09:12:51;5;5;
74880;PMS5003;63427;49.654;6.596;2023-07-28T09:15:16;4;4;
74880;PMS5003;63427;49.654;6.596;2023-07-28T09:17:41;3;3;
74880;PMS5003;63427;49.654;6.596;2023-07-28T09:20:06;4;4;
74880;PMS5003;63427;49.654;6.596;2023-07-28T09:22:30;4;4;
74880;PMS5003;63427;49.654;6.596;2023-07-28T09:24:55;4;3;
74880;PMS5003;63427;49.654;6.596;2023-07-28T09:27:21;1;1;
74880;PMS5003;63427;49.654;6.596;2023-07-28T09:29:47;3;3;
74880;PMS5003;63427;49.654;6.596;2023-07-28T09:32:13;3;2;
74880;PMS5003;63427;49.654;6.596;2023-07-28T09:34:38;3;2;
74880;PMS5003;63427;49.654;6.596;2023-07-28T09:37:05;4;4;
74880;PMS5003;63427;49.654;6.596;2023-07-28T09:39:30;2;2;
74880;PMS5003;63427;49.654;6.596;2023-07-28T09:41:55;2;2;
74880;PMS5003;63427;49.654;6.596;2023-07-28T09:44:21;2;2;
74880;PMS5003;63427;49.654;6.596;2023-07-28T09:46:49;3;3;
74880;PMS5003;63427;49.654;6.596;2023-07-28T09:49:13;4;4;
74880;PMS5003;63427;49.654;6.596;2023-07-28T09:51:39;1;1;
74880;PMS5003;63427;49.654;6.596;2023-07-28T09:54:05;3;3;
74880;PMS5003;63427;49.654;6.596;2023-07-28T09:56:31;3;3;
74880;PMS5003;63427;49.654;6.596;2023-07-28T09:58:57;4;4;
74880;PMS5003;63427;49.654;6.596;2023-07-28T10:01:23;5;5;
74880;PMS5003;63427;49.654;6.596;2023-07-28T10:03:48;5;5;
74880;PMS5003;63427;49.654;6.596;2023-07-28T10:06:14;3;3;
74880;PMS5003;63427;49.654;6.596;2023-07-28T10:08:40;4;4;
74880;PMS5003;63427;49.654;6.596;2023-07-28T10:11:11;4;4;
74880;PMS5003;63427;49.654;6.596;2023-07-28T10:15:57;4;4;
74880;PMS5003;63427;49.654;6.596;2023-07-28T10:18:23;5;5;
74880;PMS5003;63427;49.654;6.596;2023-07-28T10:20:50;4;4;
74880;PMS5003;63427;49.654;6.596;2023-07-28T10:23:15;3;3;
74880;PMS5003;63427;49.654;6.596;2023-07-28T10:25:41;5;4;
74880;PMS5003;63427;49.654;6.596;2023-07-28T10:28:07;4;4;
74880;PMS5003;63427;49.654;6.596;2023-07-28T10:30:35;4;4;
74880;PMS5003;63427;49.654;6.596;2023-07-28T10:32:58;3;3;
74880;PMS5003;63427;49.654;6.596;2023-07-28T10:35:25;3;3;
74880;PMS5003;63427;49.654;6.596;2023-07-28T10:37:50;3;3;
74880;PMS5003;63427;49.654;6.596;2023-07-28T10:40:23;4;4;
74880;PMS5003;63427;49.654;6.596;2023-07-28T10:42:42;5;5;
74880;PMS5003;63427;49.654;6.596;2023-07-28T10:45:08;4;4;
74880;PMS5003;63427;49.654;6.596;2023-07-28T10:47:33;3;3;
74880;PMS5003;63427;49.654;6.596;2023-07-28T10:52:25;4;4;
74880;PMS5003;63427;49.654;6.596;2023-07-28T10:54:50;3;3;
74880;PMS5003;63427;49.654;6.596;2023-07-28T10:57:15;3;3;
74880;PMS5003;63427;49.654;6.596;2023-07-28T10:59:40;3;3;
74880;PMS5003;63427;49.654;6.596;2023-07-28T11:02:05;3;3;
74880;PMS5003;63427;49.654;6.596;2023-07-28T11:04:30;3;3;
74880;PMS5003;63427;49.654;6.596;2023-07-28T11:06:55;3;3;
74880;PMS5003;63427;49.654;6.596;2023-07-28T11:09:22;4;4;
74880;PMS5003;63427;49.654;6.596;2023-07-28T11:11:45;1;1;
74880;PMS5003;63427;49.654;6.596;2023-07-28T11:14:10;3;3;
74880;PMS5003;63427;49.654;6.596;2023-07-28T11:16:35;4;4;
74880;PMS5003;63427;49.654;6.596;2023-07-28T11:19:01;4;4;
74880;PMS5003;63427;49.654;6.596;2023-07-28T11:21:26;2;2;
74880;PMS5003;63427;49.654;6.596;2023-07-28T11:23:52;2;2;
74880;PMS5003;63427;49.654;6.596;2023-07-28T11:26:18;3;3;
74880;PMS5003;63427;49.654;6.596;2023-07-28T11:28:44;2;2;
74880;PMS5003;63427;49.654;6.596;2023-07-28T11:31:09;2;2;
74880;PMS5003;63427;49.654;6.596;2023-07-28T11:33:35;2;2;
74880;PMS5003;63427;49.654;6.596;2023-07-28T11:36:01;3;2;
74880;PMS5003;63427;49.654;6.596;2023-07-28T11:38:27;1;1;
74880;PMS5003;63427;49.654;6.596;2023-07-28T11:40:53;3;3;
74880;PMS5003;63427;49.654;6.596;2023-07-28T11:43:19;1;1;
74880;PMS5003;63427;49.654;6.596;2023-07-28T11:45:45;2;2;
74880;PMS5003;63427;49.654;6.596;2023-07-28T11:48:10;2;2;
74880;PMS5003;63427;49.654;6.596;2023-07-28T11:50:37;1;1;
74880;PMS5003;63427;49.654;6.596;2023-07-28T11:53:01;2;2;
74880;PMS5003;63427;49.654;6.596;2023-07-28T11:55:27;3;2;
74880;PMS5003;63427;49.654;6.596;2023-07-28T11:57:53;2;2;
74880;PMS5003;63427;49.654;6.596;2023-07-28T12:00:19;1;1;
74880;PMS5003;63427;49.654;6.596;2023-07-28T12:02:45;4;3;
74880;PMS5003;63427;49.654;6.596;2023-07-28T12:05:12;2;2;
74880;PMS5003;63427;49.654;6.596;2023-07-28T12:07:36;2;2;
74880;PMS5003;63427;49.654;6.596;2023-07-28T12:10:02;2;2;
74880;PMS5003;63427;49.654;6.596;2023-07-28T12:12:28;1;1;
74880;PMS5003;63427;49.654;6.596;2023-07-28T12:14:54;3;2;
74880;PMS5003;63427;49.654;6.596;2023-07-28T12:17:21;2;2;
74880;PMS5003;63427;49.654;6.596;2023-07-28T12:22:11;2;2;
74880;PMS5003;63427;49.654;6.596;2023-07-28T12:24:37;3;3;
74880;PMS5003;63427;49.654;6.596;2023-07-28T12:27:04;2;2;
74880;PMS5003;63427;49.654;6.596;2023-07-28T12:29:34;2;2;
74880;PMS5003;63427;49.654;6.596;2023-07-28T12:31:55;2;2;
74880;PMS5003;63427;49.654;6.596;2023-07-28T12:34:21;2;2;
74880;PMS5003;63427;49.654;6.596;2023-07-28T12:36:47;2;2;
74880;PMS5003;63427;49.654;6.596;2023-07-28T12:39:13;3;3;
74880;PMS5003;63427;49.654;6.596;2023-07-28T12:41:38;2;2;
74880;PMS5003;63427;49.654;6.596;2023-07-28T12:44:04;2;2;
74880;PMS5003;63427;49.654;6.596;2023-07-28T12:46:30;3;3;
74880;PMS5003;63427;49.654;6.596;2023-07-28T12:48:56;3;3;
74880;PMS5003;63427;49.654;6.596;2023-07-28T12:51:21;2;2;
74880;PMS5003;63427;49.654;6.596;2023-07-28T12:53:46;2;2;
74880;PMS5003;63427;49.654;6.596;2023-07-28T12:56:11;1;1;
74880;PMS5003;63427;49.654;6.596;2023-07-28T12:58:37;2;2;
74880;PMS5003;63427;49.654;6.596;2023-07-28T13:01:03;2;2;
74880;PMS5003;63427;49.654;6.596;2023-07-28T13:03:29;2;2;
74880;PMS5003;63427;49.654;6.596;2023-07-28T13:05:54;3;3;
74880;PMS5003;63427;49.654;6.596;2023-07-28T13:08:20;3;3;
74880;PMS5003;63427;49.654;6.596;2023-07-28T13:10:46;3;3;
74880;PMS5003;63427;49.654;6.596;2023-07-28T13:13:12;3;3;
74880;PMS5003;63427;49.654;6.596;2023-07-28T13:15:38;3;3;
74880;PMS5003;63427;49.654;6.596;2023-07-28T13:18:04;3;3;
74880;PMS5003;63427;49.654;6.596;2023-07-28T13:20:29;3;3;
74880;PMS5003;63427;49.654;6.596;2023-07-28T13:22:55;2;2;
74880;PMS5003;63427;49.654;6.596;2023-07-28T13:25:21;2;2;
74880;PMS5003;63427;49.654;6.596;2023-07-28T13:27:47;4;4;
74880;PMS5003;63427;49.654;6.596;2023-07-28T13:30:13;3;3;
74880;PMS5003;63427;49.654;6.596;2023-07-28T13:32:39;3;3;
74880;PMS5003;63427;49.654;6.596;2023-07-28T13:35:05;3;3;
74880;PMS5003;63427;49.654;6.596;2023-07-28T13:37:30;4;3;
74880;PMS5003;63427;49.654;6.596;2023-07-28T13:39:55;3;3;
74880;PMS5003;63427;49.654;6.596;2023-07-28T13:42:21;1;1;
74880;PMS5003;63427;49.654;6.596;2023-07-28T13:44:47;3;3;
74880;PMS5003;63427;49.654;6.596;2023-07-28T13:47:13;3;3;
74880;PMS5003;63427;49.654;6.596;2023-07-28T13:49:39;2;2;
74880;PMS5003;63427;49.654;6.596;2023-07-28T13:52:05;3;3;
74880;PMS5003;63427;49.654;6.596;2023-07-28T13:54:31;4;4;
74880;PMS5003;63427;49.654;6.596;2023-07-28T13:56:57;3;3;
74880;PMS5003;63427;49.654;6.596;2023-07-28T13:59:22;3;3;
74880;PMS5003;63427;49.654;6.596;2023-07-28T14:01:48;2;2;
74880;PMS5003;63427;49.654;6.596;2023-07-28T14:04:14;3;3;
74880;PMS5003;63427;49.654;6.596;2023-07-28T14:06:40;2;2;
74880;PMS5003;63427;49.654;6.596;2023-07-28T14:09:06;3;3;
74880;PMS5003;63427;49.654;6.596;2023-07-28T14:11:32;2;2;
74880;PMS5003;63427;49.654;6.596;2023-07-28T14:13:57;3;3;
74880;PMS5003;63427;49.654;6.596;2023-07-28T14:16:23;4;4;
74880;PMS5003;63427;49.654;6.596;2023-07-28T14:18:49;3;3;
74880;PMS5003;63427;49.654;6.596;2023-07-28T14:21:15;2;2;
74880;PMS5003;63427;49.654;6.596;2023-07-28T14:23:41;2;2;
74880;PMS5003;63427;49.654;6.596;2023-07-28T14:26:07;2;2;
74880;PMS5003;63427;49.654;6.596;2023-07-28T14:28:33;3;3;
74880;PMS5003;63427;49.654;6.596;2023-07-28T14:30:58;3;3;
74880;PMS5003;63427;49.654;6.596;2023-07-28T14:33:24;3;3;
74880;PMS5003;63427;49.654;6.596;2023-07-28T14:35:50;2;2;
74880;PMS5003;63427;49.654;6.596;2023-07-28T14:38:16;2;2;
74880;PMS5003;63427;49.654;6.596;2023-07-28T14:40:42;3;3;
74880;PMS5003;63427;49.654;6.596;2023-07-28T14:43:08;3;3;
74880;PMS5003;63427;49.654;6.596;2023-07-28T14:45:33;3;3;
74880;PMS5003;63427;49.654;6.596;2023-07-28T14:47:59;2;2;
74880;PMS5003;63427;49.654;6.596;2023-07-28T14:50:25;2;2;
74880;PMS5003;63427;49.654;6.596;2023-07-28T14:52:51;1;1;
74880;PMS5003;63427;49.654;6.596;2023-07-28T14:55:17;4;4;
74880;PMS5003;63427;49.654;6.596;2023-07-28T14:57:43;2;2;
74880;PMS5003;63427;49.654;6.596;2023-07-28T15:00:09;2;2;
74880;PMS5003;63427;49.654;6.596;2023-07-28T15:02:34;3;3;
74880;PMS5003;63427;49.654;6.596;2023-07-28T15:05:00;2;2;
74880;PMS5003;63427;49.654;6.596;2023-07-28T15:07:26;1;1;
74880;PMS5003;63427;49.654;6.596;2023-07-28T15:09:52;2;2;
74880;PMS5003;63427;49.654;6.596;2023-07-28T15:12:17;2;2;
74880;PMS5003;63427;49.654;6.596;2023-07-28T15:14:43;2;2;
74880;PMS5003;63427;49.654;6.596;2023-07-28T15:17:09;1;1;
74880;PMS5003;63427;49.654;6.596;2023-07-28T15:19:35;2;2;
74880;PMS5003;63427;49.654;6.596;2023-07-28T15:22:01;2;2;
74880;PMS5003;63427;49.654;6.596;2023-07-28T15:24:27;1;1;
74880;PMS5003;63427;49.654;6.596;2023-07-28T15:26:52;1;1;
74880;PMS5003;63427;49.654;6.596;2023-07-28T15:29:19;2;2;
74880;PMS5003;63427;49.654;6.596;2023-07-28T15:31:44;2;2;
74880;PMS5003;63427;49.654;6.596;2023-07-28T15:34:10;2;2;
74880;PMS5003;63427;49.654;6.596;2023-07-28T15:36:36;1;1;
74880;PMS5003;63427;49.654;6.596;2023-07-28T15:39:01;1;1;
74880;PMS5003;63427;49.654;6.596;2023-07-28T15:41:27;1;1;
74880;PMS5003;63427;49.654;6.596;2023-07-28T15:43:53;1;1;
74880;PMS5003;63427;49.654;6.596;2023-07-28T15:46:19;1;1;
74880;PMS5003;63427;49.654;6.596;2023-07-28T15:48:45;0;0;
74880;PMS5003;63427;49.654;6.596;2023-07-28T15:51:11;1;1;
74880;PMS5003;63427;49.654;6.596;2023-07-28T15:53:36;1;1;
74880;PMS5003;63427;49.654;6.596;2023-07-28T15:56:02;1;1;
74880;PMS5003;63427;49.654;6.596;2023-07-28T15:58:28;1;1;
74880;PMS5003;63427;49.654;6.596;2023-07-28T16:00:54;2;2;
74880;PMS5003;63427;49.654;6.596;2023-07-28T16:03:20;1;1;
74880;PMS5003;63427;49.654;6.596;2023-07-28T16:05:47;2;2;
74880;PMS5003;63427;49.654;6.596;2023-07-28T16:08:11;1;1;
74880;PMS5003;63427;49.654;6.596;2023-07-28T16:10:37;1;1;
74880;PMS5003;63427;49.654;6.596;2023-07-28T16:13:03;1;1;
74880;PMS5003;63427;49.654;6.596;2023-07-28T16:15:29;2;2;
74880;PMS5003;63427;49.654;6.596;2023-07-28T16:17:55;0;0;
74880;PMS5003;63427;49.654;6.596;2023-07-28T16:20:20;1;1;
74880;PMS5003;63427;49.654;6.596;2023-07-28T16:22:46;1;1;
74880;PMS5003;63427;49.654;6.596;2023-07-28T16:25:12;2;2;
74880;PMS5003;63427;49.654;6.596;2023-07-28T16:27:38;1;1;
74880;PMS5003;63427;49.654;6.596;2023-07-28T16:30:04;0;0;
74880;PMS5003;63427;49.654;6.596;2023-07-28T16:32:29;1;1;
74880;PMS5003;63427;49.654;6.596;2023-07-28T16:34:55;0;0;
74880;PMS5003;63427;49.654;6.596;2023-07-28T16:37:21;0;0;
74880;PMS5003;63427;49.654;6.596;2023-07-28T16:39:47;1;1;
74880;PMS5003;63427;49.654;6.596;2023-07-28T16:42:13;1;1;
74880;PMS5003;63427;49.654;6.596;2023-07-28T16:44:38;1;1;
74880;PMS5003;63427;49.654;6.596;2023-07-28T16:47:05;1;1;
74880;PMS5003;63427;49.654;6.596;2023-07-28T16:49:30;1;1;
74880;PMS5003;63427;49.654;6.596;2023-07-28T16:51:56;2;2;
74880;PMS5003;63427;49.654;6.596;2023-07-28T16:54:22;0;0;
74880;PMS5003;63427;49.654;6.596;2023-07-28T16:56:47;2;1;
74880;PMS5003;63427;49.654;6.596;2023-07-28T16:59:13;1;1;
74880;PMS5003;63427;49.654;6.596;2023-07-28T17:01:44;1;1;
74880;PMS5003;63427;49.654;6.596;2023-07-28T17:04:05;1;1;
74880;PMS5003;63427;49.654;6.596;2023-07-28T17:06:31;1;1;
74880;PMS5003;63427;49.654;6.596;2023-07-28T17:08:57;0;0;
74880;PMS5003;63427;49.654;6.596;2023-07-28T17:11:22;1;1;
74880;PMS5003;63427;49.654;6.596;2023-07-28T17:13:48;2;2;
74880;PMS5003;63427;49.654;6.596;2023-07-28T17:16:14;2;2;
74880;PMS5003;63427;49.654;6.596;2023-07-28T17:18:40;1;1;
74880;PMS5003;63427;49.654;6.596;2023-07-28T17:21:06;2;2;
74880;PMS5003;63427;49.654;6.596;2023-07-28T17:23:31;1;1;
74880;PMS5003;63427;49.654;6.596;2023-07-28T17:25:57;0;0;
74880;PMS5003;63427;49.654;6.596;2023-07-28T17:28:23;1;1;
74880;PMS5003;63427;49.654;6.596;2023-07-28T17:30:49;2;2;
74880;PMS5003;63427;49.654;6.596;2023-07-28T17:33:15;1;1;
74880;PMS5003;63427;49.654;6.596;2023-07-28T17:35:40;1;1;